createdAt,value
2019-05-17T00:03:33.809Z,9.70
2019-05-17T00:08:38.371Z,9.60
2019-05-17T00:13:42.091Z,9.40
2019-05-17T00:18:46.401Z,9.50
2019-05-17T00:23:50.013Z,9.50
2019-05-17T00:28:53.647Z,9.50
2019-05-17T00:33:57.241Z,8.90
2019-05-17T00:39:00.811Z,8.50
2019-05-17T00:44:06.327Z,8.70
2019-05-17T00:49:09.746Z,8.20
2019-05-17T00:54:13.314Z,7.50
2019-05-17T00:59:17.238Z,7.50
2019-05-17T01:04:21.003Z,7.80
2019-05-17T01:09:24.586Z,7.60
2019-05-17T01:14:28.455Z,7.90
2019-05-17T01:19:32.042Z,7.90
2019-05-17T01:24:36.881Z,7.50
2019-05-17T01:29:40.637Z,7.10
2019-05-17T01:34:44.188Z,7.10
2019-05-17T01:39:47.775Z,7.60
2019-05-17T01:44:51.332Z,7.50
2019-05-17T01:49:54.918Z,7.60
2019-05-17T01:54:58.581Z,7.50
2019-05-17T02:00:02.236Z,7.60
2019-05-17T02:05:07.598Z,7.80
2019-05-17T02:10:11.703Z,7.90
2019-05-17T02:15:16.578Z,7.70
2019-05-17T02:20:20.634Z,7.50
2019-05-17T02:25:24.330Z,7.70
2019-05-17T02:30:28.315Z,7.90
2019-05-17T02:35:33.643Z,7.90
2019-05-17T02:40:37.173Z,8.00
2019-05-17T02:45:43.407Z,8.20
2019-05-17T02:50:48.262Z,8.30
2019-05-17T02:55:53.879Z,8.20
2019-05-17T03:00:57.051Z,8.30
2019-05-17T03:06:03.126Z,8.20
2019-05-17T03:11:06.271Z,8.40
2019-05-17T03:16:09.907Z,8.40
2019-05-17T03:21:13.810Z,8.50
2019-05-17T03:26:17.475Z,8.50
2019-05-17T03:31:26.684Z,8.50
2019-05-17T03:36:27.234Z,8.60
2019-05-17T03:41:33.831Z,8.60
2019-05-17T03:46:36.282Z,8.60
2019-05-17T03:51:42.594Z,8.70
2019-05-17T03:56:45.719Z,8.80
2019-05-17T04:01:52.526Z,8.90
2019-05-17T04:06:54.731Z,8.90
2019-05-17T04:11:58.371Z,9.00
2019-05-17T04:17:03.034Z,9.10
2019-05-17T04:22:06.807Z,9.00
2019-05-17T04:27:13.413Z,9.10
2019-05-17T04:32:15.628Z,9.00
2019-05-17T04:37:22.615Z,9.00
2019-05-17T04:42:24.526Z,9.10
2019-05-17T04:47:28.282Z,9.10
2019-05-17T04:52:33.636Z,9.10
2019-05-17T04:57:37.080Z,9.20
2019-05-17T05:02:43.723Z,9.30
2019-05-17T05:07:46.098Z,9.40
2019-05-17T05:12:52.305Z,9.40
2019-05-17T05:17:54.946Z,9.50
2019-05-17T05:22:58.903Z,9.50
2019-05-17T05:28:02.593Z,9.80
2019-05-17T05:33:06.275Z,9.90
2019-05-17T05:38:09.866Z,10.00
2019-05-17T05:43:13.527Z,10.10
2019-05-17T05:48:17.212Z,10.30
2019-05-17T05:53:21.837Z,10.50
2019-05-17T05:58:25.634Z,10.60
2019-05-17T06:03:29.258Z,10.70
2019-05-17T06:08:32.843Z,10.80
2019-05-17T06:13:36.461Z,11.10
2019-05-17T06:18:42.323Z,11.30
2019-05-17T06:23:45.344Z,11.40
2019-05-17T06:28:49.117Z,11.50
2019-05-17T06:33:52.731Z,11.60
2019-05-17T06:38:56.314Z,11.80
2019-05-17T06:44:00.015Z,11.90
2019-05-17T06:49:03.702Z,12.10
2019-05-17T06:54:08.147Z,12.20
2019-05-17T06:59:11.884Z,12.80
2019-05-17T07:04:15.507Z,12.80
2019-05-17T07:09:19.523Z,12.90
2019-05-17T07:14:23.239Z,12.80
2019-05-17T07:19:26.879Z,12.70
2019-05-17T07:24:33.360Z,12.40
2019-05-17T07:29:37.026Z,12.30
2019-05-17T07:34:40.573Z,12.30
2019-05-17T07:39:57.600Z,12.30
2019-05-17T07:44:49.858Z,12.40
2019-05-17T07:49:54.642Z,12.70
2019-05-17T07:55:02.306Z,13.20
2019-05-17T08:00:05.566Z,14.10
2019-05-17T08:05:10.209Z,14.20
2019-05-17T08:10:14.438Z,14.40
2019-05-17T08:15:19.769Z,15.00
2019-05-17T08:20:23.670Z,15.00
2019-05-17T08:25:27.366Z,14.80
2019-05-17T08:30:31.051Z,14.90
2019-05-17T08:35:34.630Z,14.90
2019-05-17T08:40:40.391Z,15.00
2019-05-17T08:45:43.608Z,15.20
2019-05-17T08:50:49.324Z,15.40
2019-05-17T08:55:52.754Z,15.30
2019-05-17T09:00:56.327Z,15.50
2019-05-17T09:06:02.147Z,15.70
2019-05-17T09:11:05.425Z,15.60
2019-05-17T09:16:10.743Z,15.80
2019-05-17T09:21:14.379Z,16.10
2019-05-17T09:26:19.939Z,16.40
2019-05-17T09:31:24.484Z,16.50
2019-05-17T09:36:30.284Z,16.30
2019-05-17T09:41:33.347Z,16.40
2019-05-17T09:46:39.440Z,16.60
2019-05-17T09:51:42.465Z,16.70
2019-05-17T09:56:46.138Z,16.70
2019-05-17T10:01:49.956Z,16.90
2019-05-17T10:06:53.627Z,16.70
2019-05-17T10:11:57.302Z,17.10
2019-05-17T10:17:00.947Z,17.60
2019-05-17T10:22:05.199Z,17.60
2019-05-17T10:27:10.931Z,17.70
2019-05-17T10:32:14.204Z,17.70
2019-05-17T10:37:20.342Z,17.40
2019-05-17T10:42:23.078Z,17.60
2019-05-17T10:47:26.643Z,17.30
2019-05-17T10:52:30.354Z,16.90
2019-05-17T10:57:34.167Z,16.90
2019-05-17T11:02:37.836Z,17.40
2019-05-17T11:07:41.466Z,17.20
2019-05-17T11:12:45.106Z,17.30
2019-05-17T11:17:48.746Z,17.60
2019-05-17T11:22:52.362Z,17.80
2019-05-17T11:27:55.976Z,18.00
2019-05-17T11:32:59.692Z,17.80
2019-05-17T11:38:04.070Z,17.90
2019-05-17T11:43:07.685Z,17.50
2019-05-17T11:48:11.421Z,17.40
2019-05-17T11:53:15.043Z,17.00
2019-05-17T11:58:18.779Z,17.00
2019-05-17T12:03:22.492Z,17.30
2019-05-17T12:08:26.180Z,17.60
2019-05-17T12:13:29.778Z,17.60
2019-05-17T12:18:33.354Z,17.60
2019-05-17T12:23:36.976Z,17.60
2019-05-17T12:28:40.642Z,17.80
2019-05-17T12:33:44.240Z,17.90
2019-05-17T12:38:47.894Z,17.20
2019-05-17T12:43:51.499Z,17.00
2019-05-17T12:48:55.150Z,16.90
2019-05-17T12:53:58.806Z,17.30
2019-05-17T12:59:02.547Z,17.40
2019-05-17T13:04:06.128Z,17.80
2019-05-17T13:09:09.801Z,17.80
2019-05-17T13:14:13.466Z,17.60
2019-05-17T13:19:17.170Z,17.40
2019-05-17T13:24:20.751Z,17.20
2019-05-17T13:29:24.325Z,17.30
2019-05-17T13:34:27.937Z,17.40
2019-05-17T13:39:31.877Z,17.20
2019-05-17T13:44:35.471Z,17.20
2019-05-17T13:49:39.054Z,17.40
2019-05-17T13:54:42.707Z,17.60
2019-05-17T13:59:46.379Z,17.60
2019-05-17T14:04:50.008Z,17.70
2019-05-17T14:09:53.801Z,17.90
2019-05-17T14:14:57.389Z,17.50
2019-05-17T14:20:01.090Z,17.60
2019-05-17T14:25:06.521Z,17.50
2019-05-17T14:30:11.018Z,17.20
2019-05-17T14:35:14.790Z,17.20
2019-05-17T14:40:19.619Z,17.50
2019-05-17T14:45:23.267Z,17.50
2019-05-17T14:50:26.892Z,17.70
2019-05-17T14:55:30.522Z,18.10
2019-05-17T15:00:34.177Z,18.00
2019-05-17T15:05:37.801Z,18.10
2019-05-17T15:10:41.521Z,18.00
2019-05-17T15:15:45.099Z,17.90
2019-05-17T15:20:48.675Z,17.80
2019-05-17T15:25:52.347Z,17.90
2019-05-17T15:30:57.582Z,17.70
2019-05-17T15:36:01.190Z,17.60
2019-05-17T15:41:04.906Z,17.60
2019-05-17T15:46:08.633Z,17.40
2019-05-17T15:51:12.470Z,17.40
2019-05-17T15:56:16.281Z,17.10
2019-05-17T16:01:19.967Z,17.20
2019-05-17T16:06:23.488Z,17.50
2019-05-17T16:11:27.326Z,17.70
2019-05-17T16:16:31.057Z,17.50
2019-05-17T16:21:34.793Z,17.70
2019-05-17T16:26:38.360Z,17.30
2019-05-17T16:31:41.992Z,17.30
2019-05-17T16:36:45.636Z,17.20
2019-05-17T16:41:49.274Z,17.30
2019-05-17T16:46:53.107Z,17.30
2019-05-17T16:51:56.736Z,17.20
2019-05-17T16:57:00.405Z,17.10
2019-05-17T17:02:04.567Z,17.00
2019-05-17T17:07:08.226Z,17.00
2019-05-17T17:12:11.989Z,16.90
2019-05-17T17:17:15.722Z,16.80
2019-05-17T17:22:19.482Z,16.90
2019-05-17T17:27:23.282Z,16.80
2019-05-17T17:32:26.855Z,16.80
2019-05-17T17:37:30.465Z,16.70
2019-05-17T17:42:34.405Z,16.60
2019-05-17T17:47:38.151Z,16.50
2019-05-17T17:52:41.874Z,16.40
2019-05-17T17:57:45.594Z,16.30
2019-05-17T18:02:49.313Z,16.30
2019-05-17T18:07:52.951Z,16.00
2019-05-17T18:12:56.654Z,15.40
2019-05-17T18:18:00.978Z,15.70
2019-05-17T18:23:05.400Z,15.60
2019-05-17T18:28:09.697Z,15.50
2019-05-17T18:33:13.395Z,15.50
2019-05-17T18:38:20.147Z,15.40
2019-05-17T18:43:23.784Z,15.30
2019-05-17T18:48:27.429Z,15.20
2019-05-17T18:53:31.161Z,15.10
2019-05-17T18:58:34.759Z,15.00
2019-05-17T19:03:38.380Z,14.80
2019-05-17T19:08:42.128Z,14.60
2019-05-17T19:13:45.821Z,14.70
2019-05-17T19:18:49.602Z,14.50
2019-05-17T19:23:53.346Z,14.50
2019-05-17T19:28:56.996Z,14.20
2019-05-17T19:34:02.129Z,14.00
2019-05-17T19:39:06.716Z,13.90
2019-05-17T19:44:10.359Z,13.90
2019-05-17T19:49:13.948Z,13.80
2019-05-17T19:54:17.689Z,13.70
2019-05-17T19:59:21.350Z,13.60
2019-05-17T20:04:25.044Z,13.40
2019-05-17T20:09:28.619Z,13.30
2019-05-17T20:14:32.439Z,13.20
2019-05-17T20:19:36.142Z,13.20
2019-05-17T20:24:39.729Z,13.20
2019-05-17T20:29:43.328Z,13.10
2019-05-17T20:34:47.120Z,13.00
2019-05-17T20:39:50.723Z,12.90
2019-05-17T20:44:54.299Z,12.80
2019-05-17T20:49:58.035Z,12.60
2019-05-17T20:55:01.844Z,12.70
2019-05-17T21:00:09.480Z,12.80
2019-05-17T21:05:17.642Z,12.80
2019-05-17T21:10:21.590Z,12.60
2019-05-17T21:15:25.183Z,12.60
2019-05-17T21:20:29.232Z,12.40
2019-05-17T21:25:32.805Z,12.50
2019-05-17T21:30:37.188Z,12.50
2019-05-17T21:35:40.787Z,12.40
2019-05-17T21:40:44.410Z,12.40
2019-05-17T21:46:01.044Z,12.20
2019-05-17T21:50:54.117Z,12.30
2019-05-17T21:55:57.690Z,12.40
2019-05-17T22:01:04.430Z,12.40
2019-05-17T22:06:08.566Z,12.40
2019-05-17T22:11:12.198Z,12.40
2019-05-17T22:16:19.534Z,12.40
2019-05-17T22:21:21.355Z,12.50
2019-05-17T22:26:24.932Z,12.60
2019-05-17T22:31:28.594Z,12.50
2019-05-17T22:36:32.194Z,12.40
2019-05-17T22:41:35.758Z,12.50
2019-05-17T22:46:39.375Z,12.40
2019-05-17T22:51:43.104Z,12.40
2019-05-17T22:56:46.703Z,12.40
2019-05-17T23:01:50.292Z,12.40
2019-05-17T23:06:53.958Z,12.40
2019-05-17T23:11:57.582Z,12.30
2019-05-17T23:17:01.227Z,12.20
2019-05-17T23:22:05.648Z,12.00
2019-05-17T23:27:09.224Z,12.10
2019-05-17T23:32:12.869Z,12.10
2019-05-17T23:37:16.452Z,12.00
2019-05-17T23:42:20.161Z,11.80
2019-05-17T23:47:23.730Z,11.90
2019-05-17T23:52:27.434Z,11.90
2019-05-17T23:57:31.016Z,12.00
